Pagina principale
METAR-TAF:

METAR-TAF

Aeroporti :

Udine, Italia

Aeroporto di Rivolto

latitudine: 45-59N, longitudine: 013-02E, altezza: 51 m

Osservazione

Il bollettino è stato emesso 10 ore e 15 minuti fa, alle 14:55 UTC
Temperature 4°C
Umidità 87%
Pressione 1006 hPa
Visibilità: 5000 m
Poco nuvoloso ad un'altezza di 2500 ft
Nubi sparse ad un'altezza di 3000 ft
Nuvoloso ad un'altezza di 5000 ft
foschia

METAR: LIPI 161455Z /////KT 5000 BR FEW025 SCT030 BKN050 04/02 Q1006 RMK OVC VIS MIN 5000 WIND THR06 17003KT WIND THR24 15001KT WHT

Ora: 02:10 (01:10 UTC)

Previsione

Il bollettino è stato emesso 11 ore e 10 minuti fa, alle 14:00 UTC
Previsione valida dal 16 alle 15 UTC al 16 alle 24 UTC
Vento 3 kt da direzioni variabili
Visibilità: 6000 m
Nubi sparse ad un'altezza di 3000 ft
Nuvoloso ad un'altezza di 5000 ft
Temporaneamente
dal 16 alle 15 UTC al 16 alle 24 UTC
Visibilità: 4000 m
foschia

TAF: LIPI 161400Z 1615/1624 VRB03KT 6000 SCT030 BKN050 TEMPO 1615/1624 4000 BR

Osservazioni e previsioni meteorologiche di più di 4000 aeroporti (messaggi METAR e TAF).

Le stazioni disponibili sono rappresentate dai dischi gialli e rossi sulla carta.

Puntare il mouse per vedere il nome della stazione.

Clicca sopra per visualizzare le osservazioni e previsioni meteorologiche.

Per cambiare la mappa : fare clic sui pulsanti verdi con una croce nera per ingrandire, il pulsante verde con un trattino per diminuire, o sulla freccia verde per le mappe adiacenti.


METAR-TAF: